Time;durP1;ratioP1;P1;durP2;ratioP2;P2;SDS_P1;SDS_P2;PMS_P1;PMS_P2;Temp;Humidity;BMP_temperature;BMP_pressure;BME280_temperature;BME280_humidity;BME280_pressure;Samples;Min_cycle;Max_cycle;Signal;HPM_P1;HPM_P2
2021/09/04 05:08:48;;;;;;;10.32;5.30;;;10.70;99.90;;;;;;5335552;23;20498;-95
2021/09/04 05:11:15;;;;;;;9.48;5.03;;;10.80;99.90;;;;;;4965017;28;20410;-96
2021/09/04 05:14:04;;;;;;;8.73;5.00;;;10.80;99.90;;;;;;4960399;29;20496;-96
2021/09/04 05:17:11;;;;;;;7.65;5.00;;;10.90;99.90;;;;;;4958611;29;20441;-96
2021/09/04 05:19:46;;;;;;;7.60;5.03;;;11.00;99.90;;;;;;4954576;29;20429;-96
2021/09/04 05:22:46;;;;;;;6.95;4.60;;;11.00;99.90;;;;;;4953422;29;20414;-96
2021/09/04 05:25:27;;;;;;;8.45;4.93;;;11.10;99.90;;;;;;4944250;29;20430;-96
2021/09/04 05:28:07;;;;;;;8.05;5.10;;;11.20;99.90;;;;;;4955432;29;20501;-96
2021/09/04 05:30:43;;;;;;;8.70;5.10;;;11.20;99.90;;;;;;4963897;29;20481;-96
2021/09/04 05:33:57;;;;;;;12.23;4.97;;;11.20;99.90;;;;;;4945753;29;20417;-96
2021/09/04 05:37:29;;;;;;;7.22;5.13;;;11.20;99.90;;;;;;4939948;28;20444;-96
2021/09/04 06:05:59;;;;;;;13.43;5.40;;;11.70;99.90;;;;;;4871783;29;20453;-96
2021/09/04 06:08:26;;;;;;;8.95;5.80;;;11.70;99.90;;;;;;4869493;29;20446;-94
2021/09/04 06:10:54;;;;;;;7.53;5.40;;;11.70;99.90;;;;;;4883206;29;20440;-96
2021/09/04 06:19:40;;;;;;;10.20;5.80;;;12.00;99.90;;;;;;4951890;29;20524;-96
2021/09/04 06:22:32;;;;;;;7.07;4.70;;;12.00;99.90;;;;;;4938986;29;20514;-96
2021/09/04 06:25:18;;;;;;;8.17;5.20;;;12.40;99.90;;;;;;4955526;29;20428;-94
2021/09/04 06:28:22;;;;;;;6.95;4.32;;;13.20;99.90;;;;;;4944767;29;20432;-96
2021/09/04 06:31:14;;;;;;;8.65;4.55;;;14.20;99.90;;;;;;4939044;29;20435;-96
2021/09/04 06:34:12;;;;;;;6.22;4.25;;;15.80;99.90;;;;;;4935482;29;20432;-95
2021/09/04 06:37:37;;;;;;;6.10;4.25;;;17.10;99.90;;;;;;4913768;29;21035;-96
2021/09/04 06:40:41;;;;;;;5.45;4.07;;;17.50;99.90;;;;;;4909466;29;20514;-95
2021/09/04 06:44:09;;;;;;;5.13;4.07;;;17.40;99.90;;;;;;4863678;29;21036;-95
2021/09/04 06:47:41;;;;;;;7.22;4.00;;;17.60;99.90;;;;;;4858935;29;20443;-96
2021/09/04 06:59:27;;;;;;;6.93;4.35;;;16.70;99.90;;;;;;2416447;23;20694;-94
2021/09/04 07:01:55;;;;;;;9.20;4.67;;;17.00;99.90;;;;;;4905649;29;20479;-94
2021/09/04 07:04:22;;;;;;;7.05;4.10;;;17.30;99.90;;;;;;4899460;29;20427;-94
2021/09/04 07:06:49;;;;;;;11.55;4.20;;;17.60;99.90;;;;;;4886109;29;20779;-91
2021/09/04 07:09:21;;;;;;;6.57;4.00;;;17.70;99.90;;;;;;5117976;23;21314;-91
2021/09/04 07:11:49;;;;;;;8.15;4.40;;;17.60;99.90;;;;;;4949884;23;20441;-91
2021/09/04 07:14:19;;;;;;;5.75;4.03;;;17.80;99.90;;;;;;4943530;29;20418;-96
2021/09/04 07:16:46;;;;;;;8.65;4.50;;;17.80;99.90;;;;;;4944193;29;20485;-93
2021/09/04 07:19:13;;;;;;;7.15;4.50;;;18.00;99.90;;;;;;4941505;29;20440;-87
2021/09/04 07:21:54;;;;;;;7.43;4.00;;;18.00;99.90;;;;;;4943994;29;20551;-94
2021/09/04 07:24:29;;;;;;;8.73;4.43;;;18.10;99.90;;;;;;4960077;28;20437;-96
2021/09/04 07:26:56;;;;;;;5.72;4.00;;;18.10;99.90;;;;;;4956098;29;20501;-95
2021/09/04 07:29:23;;;;;;;5.40;3.78;;;18.00;99.90;;;;;;4942090;29;20440;-96
2021/09/04 07:31:50;;;;;;;6.53;4.50;;;18.00;99.90;;;;;;4944374;29;20426;-93
2021/09/04 07:34:17;;;;;;;9.43;3.85;;;18.20;99.90;;;;;;4940796;29;20430;-92
2021/09/04 07:36:45;;;;;;;8.50;3.80;;;18.40;99.90;;;;;;4941246;29;21028;-95
2021/09/04 07:39:25;;;;;;;5.90;4.05;;;18.40;99.90;;;;;;4942574;29;20523;-91
2021/09/04 07:42:02;;;;;;;7.43;4.07;;;18.40;99.90;;;;;;4948927;29;20421;-90
2021/09/04 07:45:01;;;;;;;6.32;3.72;;;18.40;99.90;;;;;;4940608;29;20473;-96
2021/09/04 07:47:33;;;;;;;5.65;4.13;;;18.50;99.90;;;;;;4942755;29;20821;-94
2021/09/04 07:50:00;;;;;;;5.35;3.95;;;18.50;99.90;;;;;;4940172;29;20925;-96
2021/09/04 07:52:28;;;;;;;5.90;3.80;;;18.70;99.90;;;;;;4941685;29;20437;-93
2021/09/04 07:54:55;;;;;;;10.48;4.10;;;18.70;99.90;;;;;;4942625;29;20429;-93
2021/09/04 07:57:27;;;;;;;6.70;4.20;;;18.60;99.90;;;;;;4939812;29;20438;-92
2021/09/04 07:59:56;;;;;;;6.72;3.90;;;18.60;99.90;;;;;;4940136;29;20422;-91
2021/09/04 08:02:23;;;;;;;7.70;4.03;;;18.70;99.90;;;;;;4939675;29;20484;-87
2021/09/04 08:04:51;;;;;;;6.18;4.32;;;18.70;99.90;;;;;;4939486;29;20430;-91
2021/09/04 08:07:18;;;;;;;5.43;4.07;;;18.60;99.90;;;;;;4939500;29;20438;-88
2021/09/04 08:09:45;;;;;;;6.25;4.10;;;18.50;99.90;;;;;;4939257;29;20496;-87
2021/09/04 08:12:12;;;;;;;7.70;4.45;;;18.40;99.90;;;;;;4957552;29;20429;-85
2021/09/04 08:14:39;;;;;;;12.27;4.25;;;18.50;99.90;;;;;;4939286;29;20908;-94
2021/09/04 08:17:06;;;;;;;7.90;4.10;;;18.50;99.90;;;;;;4939751;29;20477;-84
2021/09/04 08:19:33;;;;;;;7.17;4.10;;;18.60;99.90;;;;;;4955892;29;20629;-85
2021/09/04 08:22:02;;;;;;;4.50;3.10;;;18.60;99.90;;;;;;4939458;29;20428;-85
2021/09/04 08:24:31;;;;;;;5.13;3.78;;;18.70;99.90;;;;;;4939022;29;20492;-86
2021/09/04 08:26:59;;;;;;;5.35;3.80;;;19.00;99.90;;;;;;4956803;29;20413;-85
2021/09/04 08:29:26;;;;;;;5.70;3.55;;;19.10;99.90;;;;;;4956086;29;20930;-88
2021/09/04 08:31:54;;;;;;;5.55;3.80;;;18.80;99.90;;;;;;4955740;29;20434;-95
2021/09/04 08:34:21;;;;;;;5.27;3.50;;;18.50;99.90;;;;;;4956640;28;20512;-86
2021/09/04 08:36:48;;;;;;;5.75;3.67;;;18.30;99.90;;;;;;4943469;29;20422;-85
2021/09/04 08:39:15;;;;;;;5.13;3.60;;;18.40;99.90;;;;;;4943586;29;20438;-86
2021/09/04 08:41:42;;;;;;;4.90;3.72;;;18.40;99.90;;;;;;4960189;29;20417;-91
2021/09/04 08:44:09;;;;;;;5.45;3.75;;;18.60;99.90;;;;;;4942666;29;20936;-85
2021/09/04 08:46:38;;;;;;;8.00;4.38;;;18.40;99.90;;;;;;4944205;29;20421;-95
2021/09/04 08:49:15;;;;;;;6.32;4.20;;;18.30;99.90;;;;;;4947418;29;20422;-86
2021/09/04 08:51:42;;;;;;;7.53;4.32;;;18.20;99.90;;;;;;4966151;29;20478;-86
2021/09/04 08:54:09;;;;;;;6.67;4.30;;;18.40;99.90;;;;;;4946700;29;20429;-86
2021/09/04 08:56:36;;;;;;;6.85;4.15;;;18.40;99.90;;;;;;4963813;29;20504;-95
2021/09/04 08:59:03;;;;;;;6.13;4.10;;;18.40;99.90;;;;;;4963092;29;20448;-86
2021/09/04 09:01:31;;;;;;;5.50;3.63;;;18.60;99.90;;;;;;4946522;29;20898;-87
2021/09/04 09:04:04;;;;;;;8.63;4.35;;;18.90;99.90;;;;;;4943976;29;20480;-86
2021/09/04 09:06:35;;;;;;;5.82;4.18;;;19.10;99.90;;;;;;4945596;29;20417;-86
2021/09/04 09:09:30;;;;;;;7.18;4.07;;;19.30;99.90;;;;;;4957975;23;20478;-87
2021/09/04 09:11:57;;;;;;;6.75;4.05;;;19.20;99.90;;;;;;4967673;28;20430;-96
2021/09/04 09:14:28;;;;;;;6.55;3.92;;;19.20;99.90;;;;;;4951251;29;20487;-86
2021/09/04 09:16:57;;;;;;;5.60;4.15;;;19.70;99.90;;;;;;4949983;29;20440;-88
2021/09/04 09:19:37;;;;;;;6.18;4.38;;;19.70;99.90;;;;;;4955086;23;20423;-88
2021/09/04 09:22:15;;;;;;;5.50;3.80;;;20.30;99.90;;;;;;4951976;29;20411;-87
2021/09/04 09:24:43;;;;;;;6.43;3.92;;;20.80;99.90;;;;;;4950209;29;20426;-86
2021/09/04 09:27:14;;;;;;;4.88;3.70;;;20.80;99.90;;;;;;4953427;29;20471;-86
2021/09/04 09:29:51;;;;;;;6.25;4.38;;;20.90;99.90;;;;;;4955871;23;20427;-87
2021/09/04 09:32:18;;;;;;;8.82;3.83;;;20.70;99.90;;;;;;4948291;29;21006;-86
2021/09/04 09:34:48;;;;;;;5.22;3.70;;;20.30;99.90;;;;;;4944774;29;20526;-86
2021/09/04 09:37:16;;;;;;;6.70;3.75;;;20.00;99.90;;;;;;4943959;29;20441;-86
2021/09/04 09:39:45;;;;;;;6.28;3.67;;;19.50;99.90;;;;;;4942174;29;20483;-86
2021/09/04 09:42:13;;;;;;;6.68;4.10;;;19.60;99.90;;;;;;4943784;29;20771;-86
2021/09/04 09:44:42;;;;;;;7.20;3.53;;;19.90;99.90;;;;;;4944017;29;20420;-85
2021/09/04 09:47:11;;;;;;;6.93;3.95;;;20.10;99.90;;;;;;4943341;29;20486;-86
2021/09/04 09:49:43;;;;;;;5.53;3.97;;;20.20;99.90;;;;;;4945490;29;20535;-86
2021/09/04 09:52:15;;;;;;;6.30;3.90;;;20.20;99.90;;;;;;4943281;29;20438;-87
2021/09/04 09:54:45;;;;;;;6.15;4.10;;;20.20;99.90;;;;;;4942733;29;20420;-86
2021/09/04 09:57:12;;;;;;;8.85;4.10;;;20.40;99.90;;;;;;4948141;29;20415;-87
2021/09/04 09:59:43;;;;;;;6.55;4.30;;;20.40;99.90;;;;;;4946802;29;20443;-86
2021/09/04 10:02:13;;;;;;;6.93;4.07;;;20.50;99.90;;;;;;4959635;23;20439;-86
2021/09/04 10:04:46;;;;;;;6.80;4.33;;;20.40;99.90;;;;;;4985586;23;20447;-86
2021/09/04 10:07:13;;;;;;;10.00;4.60;;;20.60;99.90;;;;;;4936690;29;20523;-86
2021/09/04 10:10:06;;;;;;;5.28;3.72;;;20.90;98.90;;;;;;4951947;23;20434;-87
2021/09/04 10:12:34;;;;;;;5.18;3.67;;;20.70;99.90;;;;;;4951854;29;20421;-96
2021/09/04 10:15:01;;;;;;;6.80;3.80;;;20.70;99.10;;;;;;4969526;28;20460;-90
2021/09/04 10:17:28;;;;;;;7.60;3.83;;;20.70;99.90;;;;;;4953444;29;20449;-87
2021/09/04 10:19:55;;;;;;;5.80;3.90;;;21.00;99.90;;;;;;4967944;28;20916;-87
2021/09/04 10:22:22;;;;;;;5.40;3.53;;;21.20;99.70;;;;;;4965276;29;20928;-96
2021/09/04 10:24:51;;;;;;;6.45;4.03;;;21.20;97.40;;;;;;4942547;29;20826;-90
2021/09/04 10:27:34;;;;;;;5.00;3.83;;;21.30;97.10;;;;;;4941470;29;20426;-87
2021/09/04 10:30:26;;;;;;;7.53;4.22;;;21.40;97.50;;;;;;4942454;29;20421;-87
2021/09/04 10:32:58;;;;;;;7.50;4.63;;;21.30;98.90;;;;;;4941376;29;20437;-87
2021/09/04 10:35:46;;;;;;;10.47;6.63;;;21.30;99.90;;;;;;4943201;29;20519;-87
2021/09/04 10:38:19;;;;;;;10.13;6.30;;;21.10;99.90;;;;;;4943662;29;20496;-88
2021/09/04 10:40:51;;;;;;;9.27;6.55;;;20.80;99.90;;;;;;4948409;29;20917;-88
2021/09/04 10:43:20;;;;;;;9.07;6.15;;;20.80;99.90;;;;;;4943713;29;20503;-86
2021/09/04 10:45:50;;;;;;;9.63;6.30;;;20.70;99.90;;;;;;4942951;29;20455;-87
2021/09/04 10:48:22;;;;;;;9.77;6.63;;;20.80;99.90;;;;;;4957299;29;20509;-89
2021/09/04 10:51:10;;;;;;;10.73;6.75;;;20.80;99.90;;;;;;4942439;29;20434;-88
2021/09/04 10:53:41;;;;;;;8.82;5.28;;;20.90;99.90;;;;;;4946673;29;20477;-88
2021/09/04 10:56:22;;;;;;;9.75;6.18;;;21.20;99.90;;;;;;4950439;29;20437;-89
2021/09/04 10:58:51;;;;;;;10.10;5.72;;;21.30;99.90;;;;;;4940612;29;20535;-89
2021/09/04 11:01:25;;;;;;;8.27;5.80;;;21.50;99.90;;;;;;4940268;29;20437;-89
2021/09/04 11:03:54;;;;;;;8.68;6.35;;;21.50;99.90;;;;;;4941146;29;20437;-89
2021/09/04 11:06:33;;;;;;;11.82;5.95;;;21.60;99.90;;;;;;4941690;29;20921;-89
2021/09/04 11:09:01;;;;;;;10.25;5.93;;;21.30;99.90;;;;;;4957519;28;20512;-89
2021/09/04 11:11:37;;;;;;;10.32;6.22;;;20.80;99.90;;;;;;4940416;29;20432;-89
2021/09/04 11:14:18;;;;;;;7.90;4.70;;;20.40;99.90;;;;;;4941929;29;20501;-89
2021/09/04 11:16:52;;;;;;;10.10;6.00;;;20.40;99.90;;;;;;4939935;29;20818;-89
2021/09/04 11:19:40;;;;;;;8.07;5.75;;;20.60;99.90;;;;;;4940277;29;20446;-88
2021/09/04 11:22:13;;;;;;;11.55;5.53;;;20.70;99.90;;;;;;4939910;29;20441;-89
2021/09/04 11:24:42;;;;;;;7.85;5.32;;;20.70;99.90;;;;;;4939829;29;20433;-88
2021/09/04 11:27:14;;;;;;;9.18;6.13;;;20.80;99.90;;;;;;4940435;29;20422;-89
2021/09/04 11:29:53;;;;;;;8.07;5.75;;;21.00;99.90;;;;;;4940356;29;20511;-89
2021/09/04 11:32:23;;;;;;;11.65;6.20;;;21.20;99.90;;;;;;4941277;29;20485;-88
2021/09/04 11:35:02;;;;;;;9.60;6.38;;;21.60;99.90;;;;;;4941413;29;20512;-88
2021/09/04 11:37:34;;;;;;;10.52;6.03;;;21.50;99.90;;;;;;4941228;29;20822;-89
2021/09/04 11:40:08;;;;;;;8.55;5.80;;;21.70;99.90;;;;;;4941301;29;20453;-90
2021/09/04 11:42:49;;;;;;;8.73;5.38;;;21.90;99.90;;;;;;4956787;29;20599;-88
2021/09/04 11:45:21;;;;;;;7.35;5.22;;;22.40;99.90;;;;;;4940144;29;20426;-90
2021/09/04 11:47:53;;;;;;;12.98;5.38;;;23.00;99.90;;;;;;4939997;29;20434;-88
2021/09/04 11:50:25;;;;;;;10.25;5.70;;;23.10;99.60;;;;;;4940239;29;20798;-95
2021/09/04 11:52:53;;;;;;;9.65;5.55;;;23.40;97.90;;;;;;4939628;29;20422;-89
2021/09/04 11:55:28;;;;;;;12.05;6.00;;;23.40;99.10;;;;;;4956617;29;20438;-91
2021/09/04 11:58:00;;;;;;;9.70;5.95;;;23.40;97.40;;;;;;4939950;29;20428;-88
2021/09/04 12:00:30;;;;;;;9.50;6.55;;;23.40;99.70;;;;;;4939050;29;20547;-89
2021/09/04 12:02:59;;;;;;;10.88;5.53;;;23.40;98.80;;;;;;4939502;29;20929;-88
2021/09/04 12:05:28;;;;;;;8.02;5.20;;;23.50;98.60;;;;;;4939392;29;20516;-89
2021/09/04 12:08:08;;;;;;;8.55;5.72;;;23.70;99.90;;;;;;4939840;29;20460;-89
2021/09/04 12:10:41;;;;;;;10.50;5.67;;;24.00;97.90;;;;;;4942146;29;20437;-90
2021/09/04 12:13:09;;;;;;;8.15;5.53;;;24.10;95.00;;;;;;4941791;29;20430;-89
2021/09/04 12:15:51;;;;;;;8.32;6.13;;;24.10;95.90;;;;;;4941188;29;20433;-96
2021/09/04 12:18:42;;;;;;;9.80;6.32;;;24.20;94.70;;;;;;4944626;29;20437;-96
2021/09/04 12:21:23;;;;;;;9.43;6.35;;;24.20;96.30;;;;;;4944665;29;20968;-95
2021/09/04 12:23:52;;;;;;;9.98;6.55;;;23.90;98.50;;;;;;4943193;29;20422;-96
2021/09/04 12:26:20;;;;;;;12.52;6.30;;;23.60;98.60;;;;;;4940752;29;20422;-96
2021/09/04 12:28:48;;;;;;;10.80;6.53;;;23.20;98.40;;;;;;4944509;29;20433;-93
2021/09/04 12:31:18;;;;;;;11.20;7.00;;;22.70;99.90;;;;;;4949967;29;20421;-96
2021/09/04 12:33:51;;;;;;;11.82;6.78;;;22.30;99.90;;;;;;4944613;29;20436;-96
2021/09/04 12:36:26;;;;;;;12.57;7.40;;;22.20;99.90;;;;;;4942328;29;20432;-96
2021/09/04 12:38:58;;;;;;;12.38;6.75;;;22.30;99.90;;;;;;4947773;28;20510;-94
2021/09/04 12:41:35;;;;;;;12.48;6.47;;;23.00;99.90;;;;;;4959425;29;20430;-95
2021/09/04 12:44:10;;;;;;;8.63;6.00;;;23.80;98.80;;;;;;4949853;29;20473;-94
2021/09/04 12:46:38;;;;;;;9.13;5.57;;;24.60;98.80;;;;;;4950042;29;20485;-96
2021/09/04 12:49:26;;;;;;;10.07;5.43;;;25.30;99.90;;;;;;4943354;29;20426;-96
2021/09/04 12:52:00;;;;;;;7.57;5.07;;;25.90;96.70;;;;;;4958776;29;20469;-96
2021/09/04 12:54:42;;;;;;;10.85;4.63;;;26.40;94.20;;;;;;4947491;29;20461;-96
2021/09/04 12:57:22;;;;;;;9.18;5.35;;;26.40;90.90;;;;;;4949475;29;20488;-94
2021/09/04 13:00:09;;;;;;;11.02;5.22;;;26.70;88.40;;;;;;5029851;23;20508;-96
2021/09/04 13:02:45;;;;;;;7.43;5.10;;;26.70;86.30;;;;;;4928841;29;20474;-96
2021/09/04 13:05:16;;;;;;;7.95;4.72;;;26.70;90.80;;;;;;4924715;29;20439;-96
2021/09/04 13:10:27;;;;;;;7.57;4.80;;;27.40;88.60;;;;;;5010206;23;20810;-96
2021/09/04 13:13:10;;;;;;;7.65;4.60;;;27.70;81.50;;;;;;4919845;29;20437;-96
2021/09/04 13:15:40;;;;;;;8.40;4.40;;;27.60;89.50;;;;;;4901863;29;20432;-94
2021/09/04 13:18:13;;;;;;;7.68;4.43;;;27.00;84.60;;;;;;4901717;29;20445;-95
2021/09/04 13:20:40;;;;;;;5.55;3.97;;;27.10;78.10;;;;;;4901138;29;20433;-94
2021/09/04 13:23:07;;;;;;;8.97;4.63;;;27.10;77.50;;;;;;4904372;29;20982;-95
2021/09/04 13:25:35;;;;;;;4.90;3.75;;;27.50;82.10;;;;;;4904929;29;20472;-94
2021/09/04 13:28:03;;;;;;;5.97;4.03;;;27.60;81.70;;;;;;4904500;29;20429;-95
2021/09/04 13:30:30;;;;;;;7.78;4.50;;;27.20;82.40;;;;;;4905096;29;20425;-90
2021/09/04 14:28:44;;;;;;;9.25;3.60;;;27.50;74.40;;;;;;5646151;23;20520;-91
2021/09/04 14:31:11;;;;;;;31.95;6.20;;;26.20;78.60;;;;;;4944315;29;20426;-88
2021/09/04 14:33:39;;;;;;;18.83;5.30;;;24.60;83.20;;;;;;4941192;29;20482;-90
2021/09/04 14:36:05;;;;;;;14.07;4.22;;;23.50;84.60;;;;;;4941402;29;20513;-89
2021/09/04 14:38:32;;;;;;;6.95;3.90;;;22.90;90.30;;;;;;4941289;29;20421;-91
2021/09/04 14:40:59;;;;;;;9.10;4.45;;;22.50;90.90;;;;;;4941656;29;20430;-94
2021/09/04 14:43:26;;;;;;;15.83;4.53;;;22.20;93.00;;;;;;4940990;29;20933;-93
2021/09/04 14:45:53;;;;;;;8.18;3.95;;;22.00;93.40;;;;;;4940965;29;20976;-89
2021/09/04 14:48:20;;;;;;;9.68;4.10;;;22.30;86.30;;;;;;4940894;29;20512;-93
2021/09/04 14:50:48;;;;;;;7.72;3.72;;;22.60;92.50;;;;;;4941497;29;20418;-92
2021/09/04 14:53:15;;;;;;;6.20;3.35;;;22.80;92.30;;;;;;4940846;29;20473;-93
2021/09/04 14:55:42;;;;;;;7.10;3.80;;;22.90;93.40;;;;;;4941662;29;20446;-90
2021/09/04 14:58:09;;;;;;;8.65;3.50;;;23.20;93.00;;;;;;4941478;29;20418;-93
2021/09/04 15:00:38;;;;;;;9.70;3.75;;;24.20;90.00;;;;;;4942727;29;20438;-93
2021/09/04 15:03:05;;;;;;;7.38;3.45;;;25.50;84.30;;;;;;4940623;29;20433;-92
2021/09/04 15:05:32;;;;;;;5.50;3.42;;;26.40;85.20;;;;;;4941334;29;20460;-91
2021/09/04 15:07:59;;;;;;;6.13;3.55;;;27.20;78.20;;;;;;4940782;29;20933;-90
2021/09/04 15:10:26;;;;;;;12.13;4.28;;;27.20;79.00;;;;;;4940683;29;20429;-93
2021/09/04 15:12:53;;;;;;;10.90;3.73;;;26.80;81.70;;;;;;4940774;29;20436;-94
2021/09/04 15:15:20;;;;;;;5.00;3.55;;;26.90;79.70;;;;;;4940352;29;20814;-90
2021/09/04 15:17:57;;;;;;;8.98;3.50;;;27.10;81.10;;;;;;4941810;29;20443;-95
2021/09/04 15:20:25;;;;;;;4.95;3.63;;;27.00;79.70;;;;;;4940432;29;20813;-92
2021/09/04 15:22:52;;;;;;;8.73;3.40;;;27.20;81.90;;;;;;4941699;29;20433;-94
2021/09/04 15:25:19;;;;;;;12.52;3.67;;;27.50;77.30;;;;;;4945095;29;20434;-93
2021/09/04 15:27:46;;;;;;;6.17;3.40;;;27.50;77.80;;;;;;4943245;29;20429;-94
2021/09/04 15:30:13;;;;;;;7.07;3.50;;;27.60;81.10;;;;;;4942726;29;20438;-96
2021/09/04 15:32:40;;;;;;;8.07;3.90;;;27.30;78.80;;;;;;4946833;29;20422;-94
2021/09/04 15:35:07;;;;;;;4.50;3.60;;;26.30;83.30;;;;;;4942659;29;20425;-96
2021/09/04 15:37:35;;;;;;;3.97;3.20;;;26.00;81.90;;;;;;4941685;29;20426;-95
2021/09/04 15:40:02;;;;;;;6.63;3.55;;;26.20;75.10;;;;;;4942280;29;20817;-92
2021/09/04 15:42:30;;;;;;;4.97;3.50;;;26.20;80.20;;;;;;4944749;29;20425;-95
2021/09/04 15:44:57;;;;;;;5.65;3.40;;;26.10;83.70;;;;;;4945249;29;20463;-96
2021/09/04 15:47:24;;;;;;;4.50;3.22;;;26.20;80.30;;;;;;4942933;29;20436;-95
2021/09/04 15:49:51;;;;;;;5.45;3.65;;;26.00;82.80;;;;;;4942143;29;20430;-89
2021/09/04 15:52:18;;;;;;;6.50;3.40;;;26.00;79.90;;;;;;4940523;29;20434;-92
2021/09/04 15:54:45;;;;;;;7.38;3.45;;;26.20;79.90;;;;;;4940094;29;20434;-90
2021/09/04 15:57:12;;;;;;;5.28;3.60;;;26.40;80.20;;;;;;4940184;29;20421;-90
2021/09/04 15:59:41;;;;;;;4.78;3.47;;;26.40;78.50;;;;;;4923455;29;20460;-89
2021/09/04 16:02:08;;;;;;;5.00;3.50;;;26.20;80.70;;;;;;4939756;29;20936;-93
2021/09/04 16:07:56;;;;;;;5.97;3.67;;;25.60;82.30;;;;;;5692637;23;20446;-96
2021/09/04 16:19:16;;;;;;;5.80;3.38;;;24.80;87.20;;;;;;4819517;29;20436;-96
2021/09/04 16:22:38;;;;;;;;;;;;;;;;;;;;;
2021/09/04 16:29:36;;;;;;;5.25;3.55;;;24.50;86.50;;;;;;4889177;29;20444;-96
2021/09/04 16:33:13;;;;;;;5.40;3.30;;;24.30;86.30;;;;;;5058890;23;20451;-96
2021/09/04 16:36:20;;;;;;;4.57;3.55;;;24.20;86.90;;;;;;4892610;29;20431;-96
2021/09/04 16:42:52;;;;;;;6.95;3.50;;;23.80;87.50;;;;;;4903307;29;20522;-96
2021/09/04 16:45:37;;;;;;;7.10;3.70;;;23.60;87.70;;;;;;4891264;29;20582;-96
2021/09/04 16:48:33;;;;;;;6.07;3.60;;;23.30;89.10;;;;;;4889009;29;20528;-96
2021/09/04 16:51:46;;;;;;;9.20;4.20;;;23.00;89.70;;;;;;4892654;29;20434;-96
2021/09/04 16:54:45;;;;;;;9.07;3.80;;;22.80;90.40;;;;;;4889217;29;20956;-95
2021/09/04 16:57:39;;;;;;;6.22;4.25;;;22.60;90.90;;;;;;4878046;29;20477;-96
2021/09/04 17:00:30;;;;;;;7.20;3.95;;;22.10;91.40;;;;;;4892869;29;20474;-95
2021/09/04 17:03:12;;;;;;;6.00;4.20;;;21.60;91.50;;;;;;4908822;29;20448;-96
2021/09/04 17:11:42;;;;;;;6.57;4.20;;;20.70;93.40;;;;;;4959747;29;20959;-95
2021/09/04 17:14:30;;;;;;;7.17;4.63;;;20.40;93.90;;;;;;4944612;29;20485;-95
2021/09/04 17:17:45;;;;;;;;;;;;;;;;;;;;;
2021/09/04 17:28:10;;;;;;;7.97;4.30;;;18.80;97.00;;;;;;4911338;29;20406;-93
2021/09/04 17:30:43;;;;;;;7.63;4.68;;;18.20;98.10;;;;;;4901997;29;21002;-96
2021/09/04 17:33:10;;;;;;;9.60;4.85;;;17.70;99.40;;;;;;4884661;29;21045;-95
2021/09/04 17:35:37;;;;;;;7.63;4.97;;;17.40;99.90;;;;;;4884605;29;20434;-94
2021/09/04 17:38:04;;;;;;;7.90;4.97;;;17.10;99.90;;;;;;4884732;29;20434;-96
2021/09/04 17:40:32;;;;;;;6.95;4.80;;;16.70;99.90;;;;;;4884657;29;20446;-95
2021/09/04 17:42:59;;;;;;;7.07;4.82;;;16.50;99.90;;;;;;4884204;29;20427;-96
2021/09/04 17:45:26;;;;;;;9.20;5.03;;;16.20;99.90;;;;;;4884117;29;20431;-96
2021/09/04 17:47:53;;;;;;;6.93;4.68;;;16.00;99.90;;;;;;4885239;29;20446;-96
2021/09/04 17:50:20;;;;;;;6.07;4.85;;;15.70;99.90;;;;;;4884233;29;20438;-95
2021/09/04 17:52:49;;;;;;;7.78;5.30;;;15.50;99.90;;;;;;4884587;29;20537;-95
2021/09/04 17:55:16;;;;;;;8.02;5.00;;;15.30;99.90;;;;;;4906494;29;20411;-95
2021/09/04 17:57:44;;;;;;;9.15;5.00;;;15.10;99.90;;;;;;4891830;29;20419;-96
2021/09/04 18:00:14;;;;;;;6.90;4.80;;;15.00;99.90;;;;;;4893066;29;20526;-96
2021/09/04 18:03:15;;;;;;;8.20;5.03;;;14.80;99.90;;;;;;4892294;29;20553;-96
2021/09/04 18:05:57;;;;;;;7.38;4.82;;;14.80;99.90;;;;;;4881451;29;20525;-95
2021/09/04 18:08:25;;;;;;;9.88;5.43;;;14.60;99.90;;;;;;4940412;23;20451;-95
2021/09/04 18:11:02;;;;;;;7.75;4.88;;;14.60;99.90;;;;;;4949166;29;20506;-96
2021/09/04 18:13:34;;;;;;;7.22;4.65;;;14.50;99.90;;;;;;4949034;29;20423;-96
2021/09/04 18:16:06;;;;;;;6.95;5.03;;;14.50;99.90;;;;;;4947274;29;20502;-95
2021/09/04 18:18:42;;;;;;;8.50;5.10;;;14.40;99.90;;;;;;4951172;29;20483;-96
2021/09/04 18:21:44;;;;;;;6.53;4.60;;;14.50;99.90;;;;;;4950197;29;20506;-96
2021/09/04 18:27:54;;;;;;;9.05;5.20;;;14.40;99.90;;;;;;5051231;23;20449;-96
2021/09/04 18:46:48;;;;;;;;;;;;;;;;;;;;;
2021/09/04 19:50:37;;;;;;;9.00;6.45;;;13.30;99.90;;;;;;703122;23;20707;-96
2021/09/04 19:53:04;;;;;;;8.82;6.20;;;13.30;99.90;;;;;;4932165;29;20441;-96
2021/09/04 19:55:34;;;;;;;11.75;6.25;;;13.30;99.90;;;;;;4902208;29;20429;-95
2021/09/04 19:58:10;;;;;;;8.55;6.43;;;13.30;99.90;;;;;;4904578;29;20437;-96
2021/09/04 20:00:39;;;;;;;10.10;6.60;;;13.20;99.90;;;;;;4908690;29;20476;-96
2021/09/04 20:03:10;;;;;;;11.05;6.22;;;13.20;99.90;;;;;;4910304;29;20426;-96
2021/09/04 20:05:46;;;;;;;13.20;6.57;;;13.10;99.90;;;;;;4909615;29;20437;-96
2021/09/04 20:08:18;;;;;;;9.75;6.60;;;13.10;99.90;;;;;;4908794;29;20925;-96
2021/09/04 20:11:16;;;;;;;8.73;6.20;;;13.00;99.90;;;;;;4910346;29;20459;-96
2021/09/04 20:13:55;;;;;;;10.30;6.75;;;12.90;99.90;;;;;;4908268;29;20774;-96
2021/09/04 20:16:47;;;;;;;11.52;7.13;;;12.90;99.90;;;;;;4907920;29;20461;-96
2021/09/04 20:19:27;;;;;;;13.18;7.90;;;12.80;99.90;;;;;;4905938;29;20497;-95
2021/09/04 20:22:08;;;;;;;11.80;7.22;;;12.70;99.90;;;;;;4910107;29;20432;-96
2021/09/04 20:24:41;;;;;;;10.70;6.85;;;12.60;99.90;;;;;;4906021;29;20460;-96
2021/09/04 20:27:29;;;;;;;10.87;6.60;;;12.60;99.90;;;;;;4902974;29;20503;-96
2021/09/04 20:30:02;;;;;;;13.48;7.38;;;12.60;99.90;;;;;;4903169;29;20461;-95
2021/09/04 20:32:30;;;;;;;12.60;7.00;;;12.80;99.90;;;;;;4919019;29;20537;-96
2021/09/04 20:34:58;;;;;;;10.43;6.95;;;12.90;99.90;;;;;;4920126;29;20948;-94
2021/09/04 20:37:36;;;;;;;10.80;6.90;;;12.90;99.90;;;;;;4918455;29;20433;-96
2021/09/04 20:40:04;;;;;;;10.90;6.88;;;12.90;99.90;;;;;;4918104;29;20854;-94
2021/09/04 20:42:36;;;;;;;11.98;6.82;;;12.80;99.90;;;;;;4918849;29;20563;-96
2021/09/04 20:45:04;;;;;;;10.65;6.90;;;12.90;99.90;;;;;;4918596;29;20458;-96
2021/09/04 20:47:34;;;;;;;9.80;5.75;;;12.80;99.90;;;;;;4919548;29;20512;-96
2021/09/04 20:50:05;;;;;;;9.98;6.40;;;12.80;99.90;;;;;;4921912;29;20433;-96
2021/09/04 20:52:33;;;;;;;11.82;6.65;;;12.70;99.90;;;;;;4920330;29;20439;-95
2021/09/04 20:55:01;;;;;;;10.15;6.63;;;12.70;99.90;;;;;;4936753;29;20496;-96
2021/09/04 20:57:28;;;;;;;9.07;6.60;;;12.50;99.90;;;;;;4916903;29;20457;-95
2021/09/04 20:59:55;;;;;;;10.90;7.33;;;12.40;99.90;;;;;;4917978;29;20433;-96
2021/09/04 21:02:28;;;;;;;10.52;6.40;;;12.50;99.90;;;;;;4917660;29;20837;-96
2021/09/04 21:04:55;;;;;;;11.57;6.43;;;12.40;99.90;;;;;;4919024;29;20464;-95
2021/09/04 21:07:32;;;;;;;10.15;6.65;;;12.30;99.90;;;;;;4918241;29;20439;-96
2021/09/04 21:10:15;;;;;;;;;;;;;;;;;;;;;
2021/09/04 21:12:53;;;;;;;12.68;7.03;;;12.00;99.90;;;;;;4917817;29;20439;-96
2021/09/04 21:15:29;;;;;;;11.17;6.53;;;11.90;99.90;;;;;;4916851;29;20425;-96
2021/09/04 21:18:01;;;;;;;11.55;6.95;;;12.20;99.90;;;;;;4918287;29;20518;-96
2021/09/04 21:20:31;;;;;;;10.60;6.95;;;12.30;99.90;;;;;;4917895;29;20476;-96
2021/09/04 21:23:04;;;;;;;13.00;6.57;;;12.30;99.90;;;;;;4928247;29;20416;-95
2021/09/04 21:25:38;;;;;;;13.23;6.77;;;12.20;99.90;;;;;;4930172;29;20802;-96
2021/09/04 21:28:07;;;;;;;9.25;6.50;;;12.20;99.90;;;;;;4918777;29;20460;-94
2021/09/04 21:30:40;;;;;;;11.60;6.20;;;12.20;99.90;;;;;;4918090;29;20484;-95
2021/09/04 21:33:14;;;;;;;11.80;6.55;;;12.20;99.90;;;;;;4920750;29;20443;-96
2021/09/04 21:35:44;;;;;;;11.52;6.35;;;12.20;99.90;;;;;;4918486;29;20444;-96
2021/09/04 21:38:15;;;;;;;10.63;6.57;;;12.30;99.90;;;;;;4918461;29;20437;-96
2021/09/04 21:40:49;;;;;;;12.52;6.53;;;12.20;99.90;;;;;;4917917;29;20434;-96
2021/09/04 21:43:19;;;;;;;9.93;6.07;;;12.20;99.90;;;;;;4920127;29;20429;-95
2021/09/04 21:45:49;;;;;;;9.27;6.10;;;12.30;99.90;;;;;;4922073;29;20516;-96
2021/09/04 21:48:18;;;;;;;11.32;6.40;;;12.20;99.90;;;;;;4920389;29;20440;-95
2021/09/04 21:50:48;;;;;;;10.60;6.25;;;12.20;99.90;;;;;;4920009;29;20833;-96
2021/09/04 21:53:15;;;;;;;10.38;6.10;;;12.20;99.90;;;;;;4921201;29;20429;-95
2021/09/04 21:55:43;;;;;;;9.48;6.20;;;12.20;99.90;;;;;;4920577;29;20433;-94
2021/09/04 21:58:10;;;;;;;9.20;6.13;;;12.20;99.90;;;;;;4919622;29;20425;-96
2021/09/04 22:00:38;;;;;;;11.97;6.20;;;12.10;99.90;;;;;;4919730;29;20441;-96
2021/09/04 22:03:06;;;;;;;10.10;5.82;;;12.10;99.90;;;;;;4919976;29;20433;-94
2021/09/04 22:05:34;;;;;;;10.97;6.07;;;12.10;99.90;;;;;;4920411;29;20437;-96
2021/09/04 22:08:02;;;;;;;8.20;5.80;;;12.10;99.90;;;;;;4920745;29;20524;-96